Time;durP1;ratioP1;P1;durP2;ratioP2;P2;SDS_P1;SDS_P2;PMS_P1;PMS_P2;Temp;Humidity;BMP_temperature;BMP_pressure;BME280_temperature;BME280_humidity;BME280_pressure;Samples;Min_cycle;Max_cycle;Signal;HPM_P1;HPM_P2
2022/12/31 00:00:20;;;;;;;37.88;18.63;;;;;;;4.41;100.00;100117.03;5093419;28;20031;-77
2022/12/31 00:02:46;;;;;;;36.08;15.85;;;;;;;4.46;100.00;100122.88;5093437;28;20447;-78
2022/12/31 00:05:13;;;;;;;38.38;17.10;;;;;;;4.54;100.00;100125.47;5093318;28;20107;-77
2022/12/31 00:07:44;;;;;;;28.92;14.95;;;;;;;4.62;100.00;100121.16;5093529;28;20418;-76
2022/12/31 00:10:09;;;;;;;30.60;14.48;;;;;;;4.71;100.00;100121.25;5092066;28;20027;-77
2022/12/31 00:12:35;;;;;;;31.75;13.98;;;;;;;4.81;100.00;100120.88;5092027;28;20055;-78
2022/12/31 00:15:12;;;;;;;28.13;13.27;;;;;;;4.92;100.00;100129.78;5092820;28;20032;-76
2022/12/31 00:17:43;;;;;;;23.23;13.25;;;;;;;5.06;100.00;100130.50;5093301;28;20024;-79
2022/12/31 00:20:10;;;;;;;24.90;12.55;;;;;;;5.16;100.00;100126.50;5075724;28;20073;-77
2022/12/31 00:22:36;;;;;;;24.45;12.43;;;;;;;5.28;100.00;100114.34;5094025;28;20376;-77
2022/12/31 00:25:02;;;;;;;20.15;10.77;;;;;;;5.37;100.00;100117.22;5091934;28;20127;-78
2022/12/31 00:27:32;;;;;;;21.65;10.75;;;;;;;5.50;100.00;100108.66;5092952;28;20119;-76
2022/12/31 00:29:58;;;;;;;19.33;10.25;;;;;;;5.59;100.00;100112.34;5093376;28;20111;-76
2022/12/31 00:32:25;;;;;;;18.33;9.98;;;;;;;5.66;100.00;100112.06;5093480;28;20036;-78
2022/12/31 00:34:50;;;;;;;18.67;10.35;;;;;;;5.71;100.00;100099.31;5075065;28;20039;-77
2022/12/31 00:37:15;;;;;;;17.70;9.93;;;;;;;5.76;100.00;100095.88;5073128;28;20036;-76
2022/12/31 00:39:41;;;;;;;18.13;9.65;;;;;;;5.81;100.00;100098.13;5092859;28;20104;-77
2022/12/31 00:42:06;;;;;;;20.00;9.68;;;;;;;5.90;100.00;100108.69;5082873;28;20275;-75
2022/12/31 00:44:40;;;;;;;14.27;8.73;;;;;;;5.94;100.00;100096.00;5092062;28;20034;-77
2022/12/31 00:47:08;;;;;;;16.23;8.68;;;;;;;6.01;100.00;100107.03;5092501;28;20028;-78
2022/12/31 00:49:36;;;;;;;16.75;8.48;;;;;;;6.04;100.00;100117.44;5092612;28;20024;-76
2022/12/31 00:52:06;;;;;;;15.52;8.63;;;;;;;6.08;100.00;100120.16;5074520;28;20035;-78
2022/12/31 00:54:32;;;;;;;15.43;8.05;;;;;;;6.12;100.00;100118.75;5091785;28;20039;-78
2022/12/31 00:56:58;;;;;;;16.98;8.25;;;;;;;6.15;100.00;100119.84;5092028;28;20028;-78
2022/12/31 00:59:23;;;;;;;15.18;8.45;;;;;;;6.23;100.00;100119.09;5092148;28;20036;-78
2022/12/31 01:01:54;;;;;;;15.20;7.68;;;;;;;6.28;100.00;100111.22;5092667;28;20470;-76
2022/12/31 01:04:20;;;;;;;12.50;7.45;;;;;;;6.36;100.00;100110.50;5092174;28;20415;-77
2022/12/31 01:06:46;;;;;;;16.30;8.43;;;;;;;6.38;100.00;100125.03;5074169;28;20036;-77
2022/12/31 01:09:15;;;;;;;13.93;7.90;;;;;;;6.44;100.00;100130.84;5074411;28;20032;-77
2022/12/31 01:11:41;;;;;;;13.88;9.15;;;;;;;6.51;100.00;100130.56;5091843;28;20031;-78
2022/12/31 01:14:12;;;;;;;12.63;7.32;;;;;;;6.55;100.00;100129.16;5092328;28;20028;-76
2022/12/31 01:16:42;;;;;;;12.95;8.13;;;;;;;6.61;100.00;100130.13;5058553;28;20115;-78
2022/12/31 01:19:18;;;;;;;15.57;7.93;;;;;;;6.68;100.00;100125.41;5075143;28;20024;-78
2022/12/31 01:21:46;;;;;;;16.63;8.75;;;;;;;6.73;100.00;100121.94;5092228;28;20024;-78
2022/12/31 01:24:13;;;;;;;12.73;7.93;;;;;;;6.80;100.00;100116.72;5073475;28;20049;-77
2022/12/31 01:26:39;;;;;;;11.88;7.35;;;;;;;6.85;100.00;100118.16;5075200;28;20036;-77
2022/12/31 01:29:08;;;;;;;13.40;8.20;;;;;;;6.86;100.00;100111.22;5092114;28;20035;-76
2022/12/31 01:31:36;;;;;;;16.45;8.05;;;;;;;6.87;100.00;100107.91;5075169;28;20480;-77
2022/12/31 01:34:03;;;;;;;11.63;7.95;;;;;;;6.88;100.00;100106.63;5091972;28;20029;-77
2022/12/31 01:36:44;;;;;;;13.60;7.80;;;;;;;6.98;100.00;100096.06;5075425;28;20032;-76
2022/12/31 01:39:11;;;;;;;12.82;7.85;;;;;;;7.00;100.00;100102.06;5093471;28;20047;-78
2022/12/31 01:41:39;;;;;;;11.10;6.85;;;;;;;7.03;100.00;100101.09;5093455;28;20035;-77
2022/12/31 01:44:24;;;;;;;10.88;6.95;;;;;;;7.06;100.00;100109.50;5092356;28;20356;-77
2022/12/31 01:46:57;;;;;;;9.38;6.13;;;;;;;7.11;100.00;100113.75;5093702;28;20071;-77
2022/12/31 01:50:00;;;;;;;11.20;7.05;;;;;;;7.21;100.00;100123.06;5094408;28;20471;-78
2022/12/31 01:52:44;;;;;;;10.18;6.28;;;;;;;7.29;100.00;100127.94;5083934;28;20040;-74
2022/12/31 01:55:25;;;;;;;12.23;6.45;;;;;;;7.35;100.00;100133.78;5096998;28;20077;-77
2022/12/31 01:58:00;;;;;;;7.95;5.15;;;;;;;7.35;100.00;100137.41;5097285;28;20016;-78
2022/12/31 02:00:27;;;;;;;7.40;5.53;;;;;;;7.38;100.00;100142.13;5078760;28;20028;-77
2022/12/31 02:03:07;;;;;;;7.45;5.32;;;;;;;7.38;100.00;100147.03;5097038;28;20047;-77
2022/12/31 02:05:45;;;;;;;10.35;5.97;;;;;;;7.43;100.00;100157.78;5078501;28;20069;-76
2022/12/31 02:08:12;;;;;;;7.88;5.90;;;;;;;7.49;100.00;100150.19;5096842;28;20594;-75
2022/12/31 02:10:39;;;;;;;10.40;5.63;;;;;;;7.44;100.00;100145.94;5095395;28;20057;-76
2022/12/31 02:13:05;;;;;;;10.27;5.45;;;;;;;7.44;100.00;100142.28;5095150;28;20032;-77
2022/12/31 02:15:50;;;;;;;10.15;5.45;;;;;;;7.51;100.00;100164.72;5095294;28;20164;-77
2022/12/31 02:18:37;;;;;;;9.35;5.22;;;;;;;7.54;100.00;100153.19;5096420;28;20469;-77
2022/12/31 02:21:30;;;;;;;8.25;4.70;;;;;;;7.58;100.00;100155.84;5077108;28;20434;-76
2022/12/31 02:24:37;;;;;;;10.40;5.55;;;;;;;7.62;100.00;100164.25;5093592;28;20064;-77
2022/12/31 02:27:20;;;;;;;7.03;4.57;;;;;;;7.68;100.00;100156.63;5093244;28;20081;-76
2022/12/31 02:30:08;;;;;;;7.28;4.43;;;;;;;7.72;100.00;100158.03;5095018;28;20024;-78
2022/12/31 02:33:03;;;;;;;7.32;4.60;;;;;;;7.77;100.00;100148.88;5077057;28;20480;-77
2022/12/31 02:35:39;;;;;;;8.50;4.70;;;;;;;7.73;100.00;100147.47;5094703;28;20610;-76
2022/12/31 02:38:09;;;;;;;6.78;4.30;;;;;;;7.74;100.00;100134.81;5094881;28;20149;-76
2022/12/31 02:40:36;;;;;;;6.30;4.57;;;;;;;7.75;100.00;100144.94;5076837;28;20036;-75
2022/12/31 02:43:02;;;;;;;7.00;4.50;;;;;;;7.76;100.00;100144.47;5076652;28;20035;-76
2022/12/31 02:45:35;;;;;;;7.07;4.43;;;;;;;7.78;100.00;100149.66;5094675;28;20388;-76
2022/12/31 02:48:16;;;;;;;13.88;5.25;;;;;;;7.84;100.00;100157.09;5076158;28;20024;-78
2022/12/31 02:51:10;;;;;;;7.60;4.13;;;;;;;7.91;100.00;100164.50;5094453;28;20321;-76
2022/12/31 02:54:00;;;;;;;6.80;4.25;;;;;;;7.96;100.00;100170.31;5094614;28;20031;-75
2022/12/31 02:56:31;;;;;;;6.97;5.10;;;;;;;8.02;100.00;100163.97;5075902;28;20032;-76
2022/12/31 03:02:14;;;;;;;5.55;3.40;;;;;;;8.10;100.00;100166.03;5093257;28;20046;-75
2022/12/31 03:04:54;;;;;;;5.88;3.85;;;;;;;8.11;100.00;100161.91;5095356;28;20038;-76
2022/12/31 03:07:30;;;;;;;4.35;3.10;;;;;;;8.09;100.00;100141.69;5095417;28;20028;-76
2022/12/31 03:09:57;;;;;;;5.20;3.15;;;;;;;8.10;100.00;100153.84;5093989;28;20049;-77
2022/12/31 03:12:45;;;;;;;5.78;3.25;;;;;;;8.13;100.00;100156.50;5062848;28;20020;-78
2022/12/31 03:15:18;;;;;;;4.78;3.22;;;;;;;8.18;100.00;100164.44;5084670;28;20024;-77
2022/12/31 03:18:02;;;;;;;4.78;3.50;;;;;;;8.20;100.00;100166.81;5109462;28;20035;-77
2022/12/31 03:23:23;;;;;;;4.97;3.15;;;;;;;8.24;100.00;100185.28;5109130;28;20522;-77
2022/12/31 03:25:55;;;;;;;8.20;3.70;;;;;;;8.27;100.00;100184.31;5099573;28;20030;-77
2022/12/31 03:28:24;;;;;;;5.07;3.25;;;;;;;8.26;100.00;100167.75;5060678;28;20496;-76
2022/12/31 03:30:54;;;;;;;5.47;3.58;;;;;;;8.32;100.00;100177.97;5077276;28;20040;-77
2022/12/31 03:33:21;;;;;;;4.38;3.08;;;;;;;8.26;100.00;100181.97;5094100;28;20035;-77
2022/12/31 03:35:48;;;;;;;4.85;2.92;;;;;;;8.31;100.00;100189.88;5076760;28;20170;-77
2022/12/31 03:38:16;;;;;;;6.05;3.80;;;;;;;8.26;100.00;100181.97;5093909;28;20039;-76
2022/12/31 03:40:45;;;;;;;4.13;2.90;;;;;;;8.29;100.00;100201.72;5094518;28;20035;-79
2022/12/31 03:43:19;;;;;;;5.72;2.95;;;;;;;8.33;100.00;100201.53;5060132;28;20392;-76
2022/12/31 03:46:00;;;;;;;4.13;3.00;;;;;;;8.38;100.00;100198.03;5095140;28;20389;-76
2022/12/31 03:48:26;;;;;;;4.53;3.22;;;;;;;8.41;100.00;100199.16;5094749;28;20465;-77
2022/12/31 03:50:52;;;;;;;3.78;2.42;;;;;;;8.44;100.00;100201.03;5076807;28;20477;-77
2022/12/31 03:53:19;;;;;;;6.90;2.95;;;;;;;8.45;100.00;100205.47;5094944;28;20027;-75
2022/12/31 03:55:51;;;;;;;5.50;3.25;;;;;;;8.50;100.00;100207.66;5094509;28;20024;-76
2022/12/31 03:58:17;;;;;;;4.00;2.42;;;;;;;8.51;100.00;100197.84;5094404;28;20473;-76
2022/12/31 04:00:43;;;;;;;4.10;2.97;;;;;;;8.43;100.00;100205.16;5094704;28;20020;-77
2022/12/31 04:03:09;;;;;;;4.00;2.78;;;;;;;8.43;100.00;100205.16;5093908;28;20036;-77
2022/12/31 04:05:35;;;;;;;3.55;2.38;;;;;;;8.47;100.00;100195.16;5076193;28;20028;-77
2022/12/31 04:08:01;;;;;;;5.55;3.08;;;;;;;8.47;100.00;100188.66;5076140;28;20483;-75
2022/12/31 04:10:29;;;;;;;4.20;2.78;;;;;;;8.47;100.00;100175.22;5075850;28;20020;-77
2022/12/31 04:12:59;;;;;;;4.93;2.95;;;;;;;8.33;100.00;100173.88;5092641;28;20111;-76
2022/12/31 04:15:25;;;;;;;5.75;2.90;;;;;;;8.31;100.00;100176.41;5093800;28;20024;-77
2022/12/31 04:17:50;;;;;;;3.92;2.92;;;;;;;8.29;100.00;100175.31;5093873;28;20465;-76
2022/12/31 04:20:18;;;;;;;3.17;2.75;;;;;;;8.25;100.00;100188.94;5094199;28;20047;-77
2022/12/31 04:22:45;;;;;;;4.88;2.80;;;;;;;8.19;100.00;100188.00;5094283;28;20039;-75
2022/12/31 04:25:13;;;;;;;4.70;2.83;;;;;;;8.22;100.00;100181.34;5093523;28;20405;-76
2022/12/31 04:27:42;;;;;;;5.72;3.17;;;;;;;8.26;100.00;100181.97;5093998;28;20023;-76
2022/12/31 04:30:10;;;;;;;5.47;3.45;;;;;;;8.30;100.00;100174.84;5092742;28;20103;-77
2022/12/31 04:32:36;;;;;;;3.53;2.88;;;;;;;8.34;100.00;100164.06;5093770;28;20035;-77
2022/12/31 04:35:10;;;;;;;3.92;3.05;;;;;;;8.36;100.00;100167.19;5092936;28;20028;-76
2022/12/31 04:37:42;;;;;;;3.85;2.60;;;;;;;8.44;100.00;100161.97;5075946;28;20027;-78
2022/12/31 04:40:07;;;;;;;3.58;2.70;;;;;;;8.44;100.00;100166.88;5094226;28;20024;-77
2022/12/31 04:42:34;;;;;;;4.70;3.20;;;;;;;8.34;100.00;100177.50;5093798;28;20166;-77
2022/12/31 04:45:02;;;;;;;2.90;2.55;;;;;;;8.29;100.00;100184.66;5093798;28;20028;-77
2022/12/31 04:47:29;;;;;;;4.75;3.25;;;;;;;8.29;100.00;100193.19;5092726;28;20065;-76
2022/12/31 04:49:55;;;;;;;4.45;2.70;;;;;;;8.32;100.00;100199.97;5094216;28;20020;-76
2022/12/31 04:52:22;;;;;;;4.35;2.83;;;;;;;8.38;100.00;100201.69;5093843;28;20127;-77
2022/12/31 04:54:48;;;;;;;4.00;2.90;;;;;;;8.45;100.00;100208.31;5092444;28;20036;-77
2022/12/31 04:57:35;;;;;;;3.30;2.65;;;;;;;8.49;100.00;100208.91;5075556;28;20439;-76
2022/12/31 05:00:00;;;;;;;3.42;2.40;;;;;;;8.53;100.00;100198.13;5093603;28;20492;-76
2022/12/31 05:02:42;;;;;;;4.00;2.50;;;;;;;8.54;100.00;100191.19;5092153;28;20075;-76
2022/12/31 05:05:11;;;;;;;2.95;2.38;;;;;;;8.47;100.00;100195.16;5093750;28;20028;-77
2022/12/31 05:07:37;;;;;;;4.28;2.53;;;;;;;8.38;100.00;100193.16;5075488;28;20035;-78
2022/12/31 05:10:03;;;;;;;4.15;2.40;;;;;;;8.32;100.00;100185.72;5093329;28;20103;-78
2022/12/31 05:12:29;;;;;;;4.00;2.53;;;;;;;8.26;100.00;100191.28;5075474;28;20062;-77
2022/12/31 05:14:55;;;;;;;4.00;2.50;;;;;;;8.18;100.00;100178.66;5092268;28;20396;-76
2022/12/31 05:17:23;;;;;;;4.35;2.67;;;;;;;8.16;100.00;100175.50;5093342;28;20024;-77
2022/12/31 05:19:51;;;;;;;3.97;2.97;;;;;;;8.08;100.00;100179.94;5092374;28;20534;-77
2022/12/31 05:22:30;;;;;;;5.90;2.47;;;;;;;8.01;100.00;100176.66;5093328;28;20055;-77
2022/12/31 05:25:04;;;;;;;3.95;2.67;;;;;;;8.00;100.00;100169.38;5094729;28;20133;-78
2022/12/31 05:27:31;;;;;;;3.78;2.55;;;;;;;7.88;100.00;100179.66;5097203;28;20502;-76
2022/12/31 05:29:58;;;;;;;3.63;2.70;;;;;;;7.84;100.00;100179.84;5096034;28;20035;-77
2022/12/31 05:32:32;;;;;;;3.80;2.85;;;;;;;7.84;100.00;100196.13;5097108;28;20032;-77
2022/12/31 05:34:58;;;;;;;3.50;2.50;;;;;;;7.77;100.00;100193.59;5096859;28;20027;-76
2022/12/31 05:37:33;;;;;;;3.92;2.70;;;;;;;7.76;100.00;100192.81;5095972;28;20032;-76
2022/12/31 05:40:00;;;;;;;3.00;2.45;;;;;;;7.76;100.00;100203.41;5079100;28;20070;-75
2022/12/31 05:42:26;;;;;;;4.60;2.70;;;;;;;7.82;100.00;100204.31;5079151;28;20465;-76
2022/12/31 05:44:53;;;;;;;3.33;2.55;;;;;;;7.88;100.00;100210.97;5097036;28;20020;-76
2022/12/31 05:47:18;;;;;;;2.45;2.25;;;;;;;7.92;100.00;100203.84;5095677;28;20163;-75
2022/12/31 05:49:52;;;;;;;2.97;2.63;;;;;;;8.01;100.00;100202.25;5095360;28;20117;-76
2022/12/31 05:52:26;;;;;;;3.38;2.38;;;;;;;8.02;100.00;100204.59;5078514;28;20032;-78
2022/12/31 05:54:53;;;;;;;5.05;2.22;;;;;;;8.06;100.00;100198.75;5096683;28;20377;-76
2022/12/31 05:57:21;;;;;;;2.60;2.40;;;;;;;8.09;100.00;100192.91;5096797;28;20024;-76
2022/12/31 05:59:54;;;;;;;4.07;2.72;;;;;;;8.11;100.00;100207.44;5078577;28;20050;-77
2022/12/31 06:02:35;;;;;;;4.32;2.50;;;;;;;8.12;100.00;100203.31;5078189;28;20089;-75
2022/12/31 06:05:03;;;;;;;5.63;2.67;;;;;;;8.10;100.00;100216.47;5096569;28;20056;-76
2022/12/31 06:07:29;;;;;;;2.75;2.25;;;;;;;8.06;100.00;100208.09;5094922;28;20031;-77
2022/12/31 06:09:55;;;;;;;3.88;2.47;;;;;;;8.04;100.00;100206.97;5096614;28;20024;-76
2022/12/31 06:12:21;;;;;;;3.92;2.75;;;;;;;8.05;100.00;100197.19;5096272;28;20062;-77
2022/12/31 06:14:48;;;;;;;4.05;2.55;;;;;;;8.07;100.00;100203.16;5095443;28;20044;-77
2022/12/31 06:17:13;;;;;;;2.92;2.28;;;;;;;8.04;100.00;100212.66;5077871;28;20022;-77
2022/12/31 06:19:39;;;;;;;3.30;2.30;;;;;;;8.04;100.00;100213.47;5095023;28;20040;-77
2022/12/31 06:22:06;;;;;;;3.95;2.65;;;;;;;8.00;100.00;100210.00;5096500;28;20020;-77
2022/12/31 06:24:32;;;;;;;6.65;3.00;;;;;;;8.02;100.00;100212.34;5095022;28;20047;-76
2022/12/31 06:26:59;;;;;;;4.55;2.72;;;;;;;7.95;100.00;100210.66;5079182;28;20044;-77
2022/12/31 06:29:27;;;;;;;6.60;2.90;;;;;;;7.94;100.00;100214.75;5057786;28;20419;-78
2022/12/31 06:31:53;;;;;;;5.18;2.80;;;;;;;8.03;100.00;100225.31;5075711;28;20377;-76
2022/12/31 06:34:20;;;;;;;3.10;2.53;;;;;;;8.05;100.00;100228.47;5073864;28;20048;-77
2022/12/31 06:36:53;;;;;;;4.30;2.90;;;;;;;8.11;100.00;100229.44;5074682;28;20039;-75
2022/12/31 06:39:23;;;;;;;4.47;2.38;;;;;;;8.20;100.00;100233.06;5075689;28;20491;-77
2022/12/31 06:41:49;;;;;;;4.57;2.80;;;;;;;8.26;100.00;100230.38;5075586;28;20408;-75
2022/12/31 06:44:15;;;;;;;3.92;2.72;;;;;;;8.32;100.00;100226.38;5057346;28;20043;-76
2022/12/31 06:46:40;;;;;;;3.50;2.33;;;;;;;8.33;100.00;100219.41;5057559;28;20459;-78
2022/12/31 06:49:08;;;;;;;3.47;2.72;;;;;;;8.30;100.00;100213.91;5075786;28;20029;-76
2022/12/31 06:51:35;;;;;;;4.40;2.78;;;;;;;8.24;100.00;100221.50;5057476;28;20032;-78
2022/12/31 06:54:01;;;;;;;3.55;2.40;;;;;;;8.21;100.00;100220.38;5075570;28;20533;-78
2022/12/31 06:56:30;;;;;;;5.10;3.00;;;;;;;8.20;100.00;100215.19;5075151;28;20021;-78
2022/12/31 06:58:56;;;;;;;3.33;2.70;;;;;;;8.22;100.00;100206.94;5075388;28;20111;-75
2022/12/31 07:01:29;;;;;;;4.03;2.50;;;;;;;8.24;100.00;100218.66;5074995;28;20119;-77
2022/12/31 07:04:20;;;;;;;6.65;2.42;;;;;;;8.25;100.00;100212.50;5075311;28;20032;-78
2022/12/31 07:06:51;;;;;;;5.25;2.38;;;;;;;8.27;100.00;100226.22;5074814;28;20056;-77
2022/12/31 07:09:40;;;;;;;2.70;2.23;;;;;;;8.30;100.00;100242.38;5057610;28;20028;-79
2022/12/31 07:12:30;;;;;;;3.13;2.45;;;;;;;8.32;100.00;100242.66;5057406;28;20039;-78
2022/12/31 07:15:36;;;;;;;2.45;2.20;;;;;;;8.36;100.00;100251.84;5057124;28;20029;-77
2022/12/31 07:18:37;;;;;;;3.20;2.35;;;;;;;8.49;100.00;100246.72;5013140;28;20068;-78
2022/12/31 07:21:13;;;;;;;3.05;2.35;;;;;;;8.57;100.00;100236.56;5061445;28;20389;-77
2022/12/31 07:23:41;;;;;;;4.20;2.42;;;;;;;8.63;100.00;100228.94;5056923;28;20052;-78
2022/12/31 07:26:41;;;;;;;4.55;2.55;;;;;;;8.74;100.00;100245.53;5074879;28;20388;-79
2022/12/31 07:29:29;;;;;;;3.53;2.30;;;;;;;8.86;100.00;100235.94;5032154;28;20045;-85
2022/12/31 07:32:07;;;;;;;4.65;2.85;;;;;;;8.97;100.00;100238.28;5069051;28;20029;-78
2022/12/31 07:34:44;;;;;;;4.97;2.42;;;;;;;9.07;100.00;100223.50;5087277;28;20032;-78
2022/12/31 07:37:20;;;;;;;2.95;2.25;;;;;;;9.15;100.00;100241.03;5087038;28;20025;-80
2022/12/31 07:39:51;;;;;;;5.40;2.30;;;;;;;9.24;100.00;100250.31;5088659;28;20013;-79
2022/12/31 07:42:59;;;;;;;3.88;2.17;;;;;;;9.29;100.00;100250.91;5097363;28;20047;-79
2022/12/31 07:45:49;;;;;;;2.60;1.73;;;;;;;9.37;100.00;100243.56;5075080;28;20044;-79
2022/12/31 07:48:24;;;;;;;3.90;2.53;;;;;;;9.40;100.00;100248.28;5093461;28;20028;-81
2022/12/31 07:50:53;;;;;;;5.50;2.08;;;;;;;9.35;100.00;100240.44;5060386;28;20114;-82
2022/12/31 07:53:19;;;;;;;2.42;1.70;;;;;;;9.39;100.00;100238.19;5077104;28;20024;-80
2022/12/31 07:55:45;;;;;;;2.92;2.35;;;;;;;9.48;100.00;100238.09;5076814;28;20078;-80
2022/12/31 07:58:27;;;;;;;3.00;2.30;;;;;;;9.54;100.00;100234.09;5088908;28;20021;-82
2022/12/31 08:00:55;;;;;;;;;;;;;;;9.60;100.00;100240.69;5085687;28;20043;-79
2022/12/31 08:03:58;;;;;;;3.08;2.33;;;;;;;9.67;100.00;100239.53;5080837;28;19916;-80
2022/12/31 08:07:07;;;;;;;3.17;1.98;;;;;;;9.75;100.00;100255.00;5073308;28;20081;-80
2022/12/31 08:09:57;;;;;;;3.63;2.38;;;;;;;9.85;100.00;100255.72;5070790;28;20419;-81
2022/12/31 08:12:24;;;;;;;3.00;2.05;;;;;;;9.93;100.00;100256.94;5075552;28;20079;-80
2022/12/31 08:14:51;;;;;;;3.05;1.52;;;;;;;9.99;100.00;100263.50;5059113;28;20081;-80
2022/12/31 08:17:18;;;;;;;3.50;2.00;;;;;;;10.01;100.00;100256.06;5094887;28;20024;-82
2022/12/31 08:19:46;;;;;;;3.28;1.65;;;;;;;10.03;100.00;100258.44;5093801;28;20046;-79
2022/12/31 08:22:18;;;;;;;3.67;2.20;;;;;;;10.05;100.00;100253.00;5092552;28;20061;-78
2022/12/31 08:25:03;;;;;;;2.05;1.52;;;;;;;10.06;100.00;100254.56;5075367;28;20079;-78
2022/12/31 08:27:44;;;;;;;2.83;2.08;;;;;;;10.08;100.00;100264.25;5094339;28;20037;-78
2022/12/31 08:30:58;;;;;;;2.22;1.60;;;;;;;10.10;100.00;100263.72;5092648;28;20381;-75
2022/12/31 08:33:50;;;;;;;4.78;1.83;;;;;;;10.06;100.00;100260.28;5069668;28;20514;-75
2022/12/31 08:36:19;;;;;;;2.33;2.03;;;;;;;10.04;100.00;100262.84;5093130;28;20032;-75
2022/12/31 08:39:40;;;;;;;5.18;2.15;;;;;;;10.08;100.00;100266.31;5075125;28;20496;-76
2022/12/31 08:42:23;;;;;;;2.90;1.67;;;;;;;10.17;100.00;100274.00;5031362;28;20068;-74
2022/12/31 08:45:15;;;;;;;2.42;1.75;;;;;;;10.29;100.00;100273.69;5087468;28;20105;-75
2022/12/31 08:48:00;;;;;;;2.60;1.73;;;;;;;10.39;100.00;100271.53;5092327;28;20042;-75
2022/12/31 08:50:27;;;;;;;3.60;1.98;;;;;;;10.44;100.00;100277.34;5091764;28;20081;-77
2022/12/31 08:52:53;;;;;;;3.42;2.10;;;;;;;10.49;100.00;100267.28;5094321;28;20031;-74
2022/12/31 08:55:19;;;;;;;3.58;2.17;;;;;;;10.55;100.00;100259.59;5093041;28;20016;-76
2022/12/31 08:58:04;;;;;;;2.92;1.80;;;;;;;10.59;100.00;100257.31;5093013;28;20024;-77
2022/12/31 09:00:30;;;;;;;2.28;2.08;;;;;;;10.65;100.00;100252.50;5070667;28;20039;-77
2022/12/31 09:03:22;;;;;;;3.85;1.70;;;;;;;10.68;100.00;100254.34;5076863;28;20020;-78
2022/12/31 09:06:09;;;;;;;2.33;1.63;;;;;;;10.83;100.00;100251.47;5076590;28;20025;-77
2022/12/31 09:08:58;;;;;;;2.88;2.20;;;;;;;10.93;100.00;100250.84;5075230;28;20102;-78
2022/12/31 09:11:42;;;;;;;3.85;2.25;;;;;;;11.02;100.00;100240.59;5057730;28;20016;-77
2022/12/31 09:14:22;;;;;;;1.80;1.60;;;;;;;10.96;100.00;100238.44;5058029;28;20519;-77
2022/12/31 09:16:51;;;;;;;4.50;2.17;;;;;;;11.01;100.00;100250.47;5057887;28;20023;-77
2022/12/31 09:19:17;;;;;;;2.55;1.67;;;;;;;11.04;100.00;100246.59;5075985;28;20021;-78
2022/12/31 09:21:45;;;;;;;2.15;1.70;;;;;;;11.02;100.00;100238.53;5075150;28;20035;-79
2022/12/31 09:24:14;;;;;;;2.60;1.65;;;;;;;11.07;100.00;100245.63;5075751;28;20048;-78
2022/12/31 09:27:01;;;;;;;2.53;1.83;;;;;;;11.04;100.00;100246.59;5075325;28;20025;-80
2022/12/31 09:29:37;;;;;;;2.22;1.80;;;;;;;11.08;100.00;100250.03;5075399;28;20024;-77
2022/12/31 09:32:26;;;;;;;4.47;2.50;;;;;;;11.07;100.00;100246.41;5057225;28;20485;-77
2022/12/31 09:35:32;;;;;;;6.70;2.45;;;;;;;11.10;100.00;100253.97;5075160;28;20500;-76
2022/12/31 09:38:38;;;;;;;6.63;2.70;;;;;;;11.24;100.00;100250.31;5076624;28;20024;-77
2022/12/31 09:41:35;;;;;;;3.35;2.22;;;;;;;11.38;100.00;100249.44;5076469;28;20054;-78
2022/12/31 09:44:22;;;;;;;1.95;1.50;;;;;;;11.55;100.00;100246.81;5075591;28;20063;-78
2022/12/31 09:47:23;;;;;;;1.45;1.30;;;;;;;11.72;100.00;100244.94;5045894;28;20037;-76
2022/12/31 09:50:39;;;;;;;1.38;1.15;;;;;;;11.93;100.00;100233.44;5068013;28;20032;-76
2022/12/31 09:53:30;;;;;;;2.60;1.20;;;;;;;12.06;100.00;100242.47;5069360;28;20068;-77
2022/12/31 09:56:23;;;;;;;2.47;1.30;;;;;;;12.12;100.00;100244.06;5075026;28;20029;-76
2022/12/31 09:59:00;;;;;;;2.35;1.63;;;;;;;12.24;100.00;100230.66;5074995;28;20400;-77
2022/12/31 10:01:43;;;;;;;3.85;1.42;;;;;;;12.27;100.00;100229.63;5073034;28;20028;-78
2022/12/31 10:04:39;;;;;;;2.13;1.42;;;;;;;12.31;100.00;100220.81;5074831;28;20031;-77
2022/12/31 10:07:38;;;;;;;2.10;1.88;;;;;;;12.42;100.00;100230.31;5074524;28;20032;-76
2022/12/31 10:10:11;;;;;;;2.92;1.55;;;;;;;12.52;100.00;100253.84;5063984;28;20083;-76
2022/12/31 10:13:20;;;;;;;1.42;1.33;;;;;;;12.59;100.00;100231.25;5054809;28;20037;-77
2022/12/31 10:16:43;;;;;;;2.72;1.35;;;;;;;12.77;100.00;100232.16;5056926;28;20029;-79
2022/12/31 10:19:36;;;;;;;4.32;1.50;;;;;;;12.84;100.00;100225.97;5033336;28;20047;-79
2022/12/31 10:22:40;;;;;;;1.77;1.30;;;;;;;12.93;100.00;100222.91;5095724;28;20106;-77
2022/12/31 10:25:45;;;;;;;4.18;1.70;;;;;;;13.15;100.00;100225.88;5095807;28;20060;-77
2022/12/31 10:28:26;;;;;;;2.45;1.40;;;;;;;13.32;100.00;100215.31;5096580;28;20423;-76
2022/12/31 10:31:21;;;;;;;3.75;1.17;;;;;;;13.41;100.00;100209.34;5095132;28;20493;-80
2022/12/31 10:34:00;;;;;;;1.55;1.10;;;;;;;13.47;100.00;100213.03;5095472;28;20469;-77
2022/12/31 10:36:44;;;;;;;1.05;0.93;;;;;;;13.65;100.00;100223.28;5095819;28;20036;-78
2022/12/31 10:39:45;;;;;;;1.40;1.20;;;;;;;13.65;100.00;100203.19;5095677;28;20374;-78
2022/12/31 10:42:20;;;;;;;1.40;1.05;;;;;;;13.70;100.00;100204.50;5081110;28;20496;-80
2022/12/31 10:45:27;;;;;;;1.25;0.93;;;;;;;13.79;100.00;100193.56;5075539;28;20119;-79
2022/12/31 10:48:09;;;;;;;5.15;1.30;;;;;;;13.85;100.00;100196.47;5078841;28;20064;-80
2022/12/31 10:51:17;;;;;;;1.08;0.98;;;;;;;13.84;100.00;100183.41;5075380;28;20016;-79
2022/12/31 10:54:24;;;;;;;4.28;1.13;;;;;;;13.85;100.00;100193.59;5076430;28;20430;-79
2022/12/31 10:57:25;;;;;;;1.15;0.93;;;;;;;13.90;100.00;100184.19;5075692;28;20032;-80
2022/12/31 11:00:02;;;;;;;1.88;1.05;;;;;;;13.89;100.00;100182.63;5076661;28;20545;-80
2022/12/31 11:02:30;;;;;;;3.05;1.30;;;;;;;13.95;100.00;100192.03;5058310;28;20386;-79
2022/12/31 11:05:08;;;;;;;1.80;1.55;;;;;;;14.01;100.00;100178.47;5076146;28;20032;-80
2022/12/31 11:08:21;;;;;;;5.68;2.45;;;;;;;14.04;100.00;100179.50;5074595;28;20029;-74
2022/12/31 11:11:12;;;;;;;2.40;1.30;;;;;;;14.05;100.00;100176.13;5036526;28;20433;-75
2022/12/31 11:14:16;;;;;;;2.25;1.35;;;;;;;14.15;100.00;100194.69;5073939;28;20031;-74
2022/12/31 11:17:07;;;;;;;4.78;1.20;;;;;;;14.28;100.00;100176.94;5072226;28;20454;-77
2022/12/31 11:20:02;;;;;;;1.85;1.48;;;;;;;14.34;100.00;100186.34;5074872;28;20031;-77
2022/12/31 11:22:35;;;;;;;2.53;1.48;;;;;;;14.45;100.00;100185.56;5072726;28;20032;-76
2022/12/31 11:25:09;;;;;;;5.22;1.50;;;;;;;14.43;100.00;100178.22;5056333;28;20131;-76
2022/12/31 11:27:46;;;;;;;3.00;1.70;;;;;;;14.25;100.00;100150.03;5074352;28;20033;-76
2022/12/31 11:30:27;;;;;;;2.33;1.10;;;;;;;14.32;100.00;100163.88;5074526;28;20021;-80
2022/12/31 11:33:02;;;;;;;2.58;1.10;;;;;;;14.29;100.00;100153.41;5074612;28;20543;-81
2022/12/31 11:35:54;;;;;;;2.05;1.17;;;;;;;14.19;100.00;100160.72;5074835;28;20036;-80
2022/12/31 11:38:30;;;;;;;;;;;;;;;14.12;100.00;100161.25;5074400;28;20032;-77
2022/12/31 11:41:18;;;;;;;2.85;0.98;;;;;;;14.07;100.00;100159.16;5071479;28;19908;-78
2022/12/31 11:44:18;;;;;;;3.10;1.23;;;;;;;14.03;100.00;100158.66;5108946;27;1369858;-81
2022/12/31 11:46:49;;;;;;;1.45;1.30;;;;;;;14.03;100.00;100150.03;5141564;28;20588;-81
2022/12/31 11:49:45;;;;;;;1.40;1.00;;;;;;;14.04;100.00;100151.56;5142105;27;20091;-78
2022/12/31 11:52:37;;;;;;;1.23;1.10;;;;;;;14.02;100.00;100141.91;5135217;27;20051;-80
2022/12/31 11:55:27;;;;;;;1.65;1.10;;;;;;;14.03;100.00;100144.28;5133438;28;20031;-80
2022/12/31 11:57:53;;;;;;;3.15;1.25;;;;;;;14.04;100.00;100130.66;5133604;28;20031;-81
2022/12/31 12:00:24;;;;;;;1.20;1.10;;;;;;;13.99;100.00;100132.22;5130880;28;20461;-79
2022/12/31 12:02:52;;;;;;;1.65;1.10;;;;;;;14.05;100.00;100123.63;5129097;27;20525;-85
2022/12/31 12:05:21;;;;;;;1.25;1.15;;;;;;;14.08;100.00;100139.84;5110506;28;20109;-80
2022/12/31 12:07:47;;;;;;;3.17;1.30;;;;;;;14.07;100.00;100130.44;5111715;28;20092;-81
2022/12/31 12:10:22;;;;;;;1.58;1.00;;;;;;;14.11;100.00;100130.94;5111559;28;20027;-79